createdAt,value
2024-04-21T00:01:22.891Z,16.71
2024-04-21T00:03:50.388Z,16.71
2024-04-21T00:06:17.356Z,16.72
2024-04-21T00:08:44.162Z,16.66
2024-04-21T00:11:11.150Z,16.60
2024-04-21T00:13:38.127Z,16.60
2024-04-21T00:16:05.170Z,16.64
2024-04-21T00:18:32.320Z,16.65
2024-04-21T00:20:59.121Z,16.65
2024-04-21T00:23:25.808Z,16.59
2024-04-21T00:25:59.529Z,16.53
2024-04-21T00:28:26.548Z,16.47
2024-04-21T00:30:53.377Z,16.58
2024-04-21T00:33:20.457Z,16.43
2024-04-21T00:35:47.552Z,16.58
2024-04-21T00:38:15.177Z,16.52
2024-04-21T00:40:42.541Z,16.52
2024-04-21T00:43:10.999Z,16.53
2024-04-21T00:45:47.843Z,16.55
2024-04-21T00:48:15.711Z,16.48
2024-04-21T00:50:47.612Z,16.47
2024-04-21T00:53:17.741Z,16.43
2024-04-21T00:55:44.885Z,16.48
2024-04-21T00:58:14.142Z,16.46
2024-04-21T01:00:42.092Z,16.29
2024-04-21T01:03:08.868Z,16.36
2024-04-21T01:05:35.662Z,16.33
2024-04-21T01:08:02.550Z,16.33
2024-04-21T01:10:29.326Z,16.33
2024-04-21T01:12:56.310Z,16.34
2024-04-21T01:15:26.587Z,16.31
2024-04-21T01:17:56.355Z,16.27
2024-04-21T01:20:23.629Z,16.12
2024-04-21T01:22:50.883Z,16.21
2024-04-21T01:25:18.317Z,16.23
2024-04-21T01:27:45.501Z,16.16
2024-04-21T01:30:12.813Z,16.14
2024-04-21T01:32:40.858Z,16.04
2024-04-21T01:35:08.002Z,16.08
2024-04-21T01:37:36.560Z,15.94
2024-04-21T01:40:07.709Z,15.98
2024-04-21T01:42:34.608Z,15.97
2024-04-21T01:45:01.881Z,16.06
2024-04-21T01:47:28.728Z,15.91
2024-04-21T01:49:57.091Z,15.92
2024-04-21T01:52:27.811Z,15.92
2024-04-21T01:54:54.584Z,15.95
2024-04-21T01:57:25.376Z,15.63
2024-04-21T01:59:55.265Z,15.75
2024-04-21T02:02:24.251Z,15.70
2024-04-21T02:04:51.808Z,15.86
2024-04-21T02:07:19.841Z,15.79
2024-04-21T02:09:46.646Z,15.82
2024-04-21T02:12:13.381Z,15.73
2024-04-21T02:14:40.137Z,15.73
2024-04-21T02:17:07.089Z,15.66
2024-04-21T02:19:34.054Z,15.60
2024-04-21T02:22:02.065Z,15.50
2024-04-21T02:24:40.552Z,15.72
2024-04-21T02:27:10.708Z,15.57
2024-04-21T02:29:37.987Z,15.44
2024-04-21T02:32:07.593Z,15.40
2024-04-21T02:34:36.741Z,15.38
2024-04-21T02:37:03.670Z,15.63
2024-04-21T02:39:30.967Z,15.38
2024-04-21T02:41:57.771Z,15.52
2024-04-21T02:44:24.464Z,15.30
2024-04-21T02:46:51.287Z,15.42
2024-04-21T02:49:18.126Z,15.56
2024-04-21T02:51:44.903Z,15.63
2024-04-21T02:54:11.837Z,15.65
2024-04-21T02:56:38.806Z,15.60
2024-04-21T02:59:05.757Z,15.49
2024-04-21T03:01:32.682Z,15.61
2024-04-21T03:03:59.670Z,15.32
2024-04-21T03:06:26.514Z,15.40
2024-04-21T03:08:56.201Z,15.38
2024-04-21T03:11:23.127Z,15.52
2024-04-21T03:13:49.962Z,15.39
2024-04-21T03:16:24.338Z,15.36
2024-04-21T03:18:51.110Z,15.12
2024-04-21T03:21:18.283Z,15.39
2024-04-21T03:23:45.124Z,15.26
2024-04-21T03:26:17.504Z,15.15
2024-04-21T03:28:46.427Z,15.25
2024-04-21T03:31:13.576Z,15.50
2024-04-21T03:33:45.629Z,15.23
2024-04-21T03:36:12.539Z,15.32
2024-04-21T03:38:39.911Z,15.48
2024-04-21T03:41:10.761Z,15.48
2024-04-21T03:43:38.006Z,15.26
2024-04-21T03:46:04.882Z,15.34
2024-04-21T03:48:37.460Z,15.33
2024-04-21T03:51:04.515Z,15.47
2024-04-21T03:53:31.497Z,15.48
2024-04-21T03:55:58.538Z,15.40
2024-04-21T03:58:25.700Z,15.39
2024-04-21T04:00:52.565Z,15.45
2024-04-21T04:03:19.482Z,15.32
2024-04-21T04:05:47.331Z,15.40
2024-04-21T04:08:14.392Z,15.40
2024-04-21T04:10:44.464Z,15.37
2024-04-21T04:13:11.779Z,15.39
2024-04-21T04:15:39.598Z,15.27
2024-04-21T04:18:06.734Z,15.18
2024-04-21T04:20:36.585Z,15.21
2024-04-21T04:23:05.123Z,15.29
2024-04-21T04:25:31.872Z,15.27
2024-04-21T04:27:58.588Z,15.21
2024-04-21T04:30:25.443Z,15.25
2024-04-21T04:32:52.264Z,15.01
2024-04-21T04:35:19.119Z,15.27
2024-04-21T04:37:45.894Z,15.16
2024-04-21T04:40:12.939Z,15.16
2024-04-21T04:42:39.648Z,15.22
2024-04-21T04:45:06.695Z,15.13
2024-04-21T04:47:33.591Z,15.11
2024-04-21T04:50:00.671Z,15.05
2024-04-21T04:52:27.414Z,15.11
2024-04-21T04:54:54.182Z,15.04
2024-04-21T04:57:20.918Z,14.89
2024-04-21T04:59:47.631Z,14.87
2024-04-21T05:02:14.364Z,14.81
2024-04-21T05:04:41.279Z,14.68
2024-04-21T05:07:09.688Z,15.07
2024-04-21T05:09:37.998Z,15.14
2024-04-21T05:12:05.201Z,14.82
2024-04-21T05:14:31.908Z,15.04
2024-04-21T05:16:58.621Z,15.04
2024-04-21T05:19:25.410Z,15.05
2024-04-21T05:21:52.269Z,14.72
2024-04-21T05:24:19.531Z,14.93
2024-04-21T05:26:46.371Z,14.73
2024-04-21T05:29:13.243Z,14.78
2024-04-21T05:31:43.087Z,14.78
2024-04-21T05:34:09.987Z,14.77
2024-04-21T05:36:36.856Z,15.06
2024-04-21T05:39:03.707Z,14.76
2024-04-21T05:41:30.553Z,14.83
2024-04-21T05:43:57.628Z,14.86
2024-04-21T05:46:24.544Z,14.65
2024-04-21T05:48:51.558Z,14.94
2024-04-21T05:51:18.437Z,15.15
2024-04-21T05:53:45.286Z,14.96
2024-04-21T05:56:12.212Z,14.96
2024-04-21T05:58:39.052Z,15.19
2024-04-21T06:01:05.934Z,15.32
2024-04-21T06:03:32.871Z,15.30
2024-04-21T06:05:59.684Z,15.10
2024-04-21T06:08:26.509Z,15.32
2024-04-21T06:10:57.596Z,15.26
2024-04-21T06:13:25.578Z,15.44
2024-04-21T06:15:52.579Z,15.48
2024-04-21T06:18:19.616Z,15.60
2024-04-21T06:20:46.462Z,15.61
2024-04-21T06:23:13.755Z,15.75
2024-04-21T06:25:40.616Z,15.83
2024-04-21T06:28:07.469Z,15.86
2024-04-21T06:30:34.462Z,16.04
2024-04-21T06:33:01.331Z,15.97
2024-04-21T06:35:28.045Z,16.24
2024-04-21T06:37:54.830Z,16.06
2024-04-21T06:40:21.570Z,16.46
2024-04-21T06:42:49.309Z,16.46
2024-04-21T06:45:16.173Z,16.52
2024-04-21T06:47:42.930Z,16.64
2024-04-21T06:50:09.914Z,16.68
2024-04-21T06:52:36.727Z,16.82
2024-04-21T06:55:03.532Z,16.86
2024-04-21T06:57:30.733Z,16.87
2024-04-21T06:59:57.448Z,17.04
2024-04-21T07:02:24.242Z,17.12
2024-04-21T07:04:50.994Z,17.16
2024-04-21T07:07:18.905Z,17.20
2024-04-21T07:09:45.861Z,17.22
2024-04-21T07:12:12.605Z,17.25
2024-04-21T07:14:39.316Z,17.23
2024-04-21T07:17:06.066Z,17.28
2024-04-21T07:19:32.836Z,17.45
2024-04-21T07:22:00.270Z,17.46
2024-04-21T07:24:27.108Z,17.39
2024-04-21T07:26:54.718Z,17.50
2024-04-21T07:29:23.685Z,17.72
2024-04-21T07:31:50.709Z,17.78
2024-04-21T07:34:17.485Z,17.78
2024-04-21T07:36:44.292Z,17.93
2024-04-21T07:39:11.360Z,17.94
2024-04-21T07:41:41.661Z,18.03
2024-04-21T07:44:08.582Z,18.09
2024-04-21T07:46:35.559Z,18.15
2024-04-21T07:49:03.274Z,18.26
2024-04-21T07:51:30.080Z,18.17
2024-04-21T07:53:57.029Z,18.16
2024-04-21T07:56:23.822Z,18.32
2024-04-21T07:58:53.753Z,18.29
2024-04-21T08:01:20.613Z,18.36
2024-04-21T08:03:53.573Z,18.18
2024-04-21T08:06:20.345Z,18.64
2024-04-21T08:08:50.636Z,18.63
2024-04-21T08:11:20.536Z,18.70
2024-04-21T08:13:47.604Z,18.91
2024-04-21T08:16:14.516Z,18.82
2024-04-21T08:18:43.570Z,19.01
2024-04-21T08:21:10.580Z,18.89
2024-04-21T08:23:37.464Z,19.14
2024-04-21T08:26:05.026Z,18.96
2024-04-21T08:28:31.940Z,19.11
2024-04-21T08:30:58.770Z,19.23
2024-04-21T08:33:27.698Z,19.22
2024-04-21T08:35:55.864Z,19.41
2024-04-21T08:38:24.619Z,19.35
2024-04-21T08:40:52.639Z,18.94
2024-04-21T08:43:26.373Z,19.26
2024-04-21T08:45:55.281Z,19.35
2024-04-21T08:48:27.082Z,19.24
2024-04-21T08:50:56.724Z,19.56
2024-04-21T08:53:24.279Z,19.33
2024-04-21T08:55:51.901Z,19.46
2024-04-21T08:58:20.096Z,19.43
2024-04-21T09:00:47.332Z,19.08
2024-04-21T09:03:17.494Z,18.99
2024-04-21T09:05:45.017Z,18.74
2024-04-21T09:08:11.813Z,19.07
2024-04-21T09:10:38.715Z,18.76
2024-04-21T09:13:05.678Z,18.63
2024-04-21T09:15:33.556Z,18.60
2024-04-21T09:18:01.944Z,18.43
2024-04-21T09:20:29.113Z,18.60
2024-04-21T09:22:55.966Z,18.76
2024-04-21T09:25:24.281Z,18.60
2024-04-21T09:27:51.349Z,18.83
2024-04-21T09:30:19.725Z,18.77
2024-04-21T09:32:47.074Z,18.66
2024-04-21T09:35:14.156Z,18.71
2024-04-21T09:37:48.158Z,18.72
2024-04-21T09:40:16.705Z,18.71
2024-04-21T09:42:45.305Z,18.36
2024-04-21T09:45:14.722Z,18.46
2024-04-21T09:47:43.593Z,18.53
2024-04-21T09:50:12.615Z,18.09
2024-04-21T09:52:40.074Z,18.55
2024-04-21T09:55:07.671Z,18.29
2024-04-21T09:57:35.850Z,18.37
2024-04-21T10:00:10.114Z,18.22
2024-04-21T10:02:39.377Z,18.05
2024-04-21T10:05:13.290Z,18.04
2024-04-21T10:07:44.784Z,18.37
2024-04-21T10:10:21.795Z,18.27
2024-04-21T10:12:49.994Z,18.37
2024-04-21T10:15:19.892Z,18.38
2024-04-21T10:18:04.953Z,18.38
2024-04-21T10:20:38.999Z,18.36
2024-04-21T10:23:11.438Z,18.47
2024-04-21T10:25:45.355Z,18.46
2024-04-21T10:28:14.046Z,18.47
2024-04-21T10:30:41.275Z,18.64
2024-04-21T10:33:11.494Z,18.81
2024-04-21T10:35:40.342Z,18.80
2024-04-21T10:38:15.441Z,18.97
2024-04-21T10:40:46.591Z,18.82
2024-04-21T10:43:13.919Z,18.88
2024-04-21T10:45:40.771Z,18.84
2024-04-21T10:48:09.514Z,18.83
2024-04-21T10:50:38.543Z,18.73
2024-04-21T10:53:06.798Z,18.78
2024-04-21T10:55:36.795Z,18.78
2024-04-21T10:58:08.108Z,18.78
2024-04-21T11:00:39.306Z,18.72
2024-04-21T11:03:07.075Z,18.68
2024-04-21T11:05:43.312Z,18.63
2024-04-21T11:08:10.282Z,18.71
2024-04-21T11:10:37.084Z,18.67
2024-04-21T11:13:07.171Z,18.53
2024-04-21T11:15:40.870Z,18.58
2024-04-21T11:18:10.002Z,18.52
2024-04-21T11:20:37.383Z,18.46
2024-04-21T11:23:04.375Z,18.38
2024-04-21T11:25:31.387Z,18.40
2024-04-21T11:27:58.116Z,18.31
2024-04-21T11:30:26.310Z,18.34
2024-04-21T11:32:53.254Z,18.28
2024-04-21T11:35:20.543Z,18.37
2024-04-21T11:37:53.029Z,18.22
2024-04-21T11:40:21.927Z,18.32
2024-04-21T11:42:48.988Z,18.30
2024-04-21T11:45:29.121Z,18.32
2024-04-21T11:47:57.073Z,18.30
2024-04-21T11:50:25.529Z,18.20
2024-04-21T11:52:52.826Z,18.20
2024-04-21T11:55:19.651Z,18.20
2024-04-21T11:57:46.768Z,18.15
2024-04-21T12:00:14.953Z,18.11
2024-04-21T12:02:41.794Z,18.04
2024-04-21T12:05:08.674Z,18.11
2024-04-21T12:07:35.435Z,18.03
2024-04-21T12:10:02.253Z,18.08
2024-04-21T12:12:29.066Z,18.03
2024-04-21T12:14:55.757Z,18.01
2024-04-21T12:17:23.257Z,17.98
2024-04-21T12:19:51.010Z,17.64
2024-04-21T12:22:18.037Z,17.83
2024-04-21T12:24:44.724Z,17.74
2024-04-21T12:27:11.422Z,17.88
2024-04-21T12:29:38.088Z,17.93
2024-04-21T12:32:05.308Z,17.89
2024-04-21T12:34:32.191Z,17.93
2024-04-21T12:36:58.939Z,17.97
2024-04-21T12:39:26.036Z,17.97
2024-04-21T12:41:53.018Z,17.88
2024-04-21T12:44:19.796Z,17.96
2024-04-21T12:46:49.803Z,17.94
2024-04-21T12:49:16.749Z,17.91
2024-04-21T12:51:47.366Z,17.91
2024-04-21T12:54:16.606Z,17.86
2024-04-21T12:56:44.617Z,17.97
2024-04-21T12:59:11.295Z,17.99
2024-04-21T13:01:38.079Z,17.97
2024-04-21T13:04:05.621Z,17.99
2024-04-21T13:06:32.382Z,17.95
2024-04-21T13:08:59.035Z,17.94
2024-04-21T13:11:25.848Z,17.99
2024-04-21T13:13:53.211Z,18.04
2024-04-21T13:16:19.957Z,17.98
2024-04-21T13:18:46.750Z,17.84
2024-04-21T13:21:13.534Z,18.06
2024-04-21T13:23:42.620Z,18.04
2024-04-21T13:26:09.829Z,18.03
2024-04-21T13:28:36.578Z,17.82
2024-04-21T13:31:03.581Z,18.10
2024-04-21T13:33:30.443Z,18.04
2024-04-21T13:35:57.210Z,18.06
2024-04-21T13:38:23.935Z,17.98
2024-04-21T13:40:50.722Z,17.99
2024-04-21T13:43:17.427Z,18.02
2024-04-21T13:45:44.415Z,18.13
2024-04-21T13:48:11.169Z,18.14
2024-04-21T13:50:37.927Z,18.04
2024-04-21T13:53:04.882Z,18.12
2024-04-21T13:55:31.729Z,18.16
2024-04-21T13:57:58.508Z,18.15
2024-04-21T14:00:25.526Z,18.05
2024-04-21T14:02:52.320Z,18.15
2024-04-21T14:05:19.222Z,18.12
2024-04-21T14:07:45.921Z,18.25
2024-04-21T14:10:12.632Z,18.21
2024-04-21T14:12:39.402Z,18.18
2024-04-21T14:15:06.390Z,18.27
2024-04-21T14:17:33.205Z,18.01
2024-04-21T14:20:00.002Z,18.24
2024-04-21T14:22:26.731Z,18.28
2024-04-21T14:24:53.548Z,18.28
2024-04-21T14:27:20.312Z,18.26
2024-04-21T14:29:50.508Z,18.16
2024-04-21T14:32:19.735Z,18.05
2024-04-21T14:34:46.441Z,18.05
2024-04-21T14:37:13.202Z,18.22
2024-04-21T14:39:39.928Z,18.19
2024-04-21T14:42:06.694Z,18.13
2024-04-21T14:44:37.731Z,18.19
2024-04-21T14:47:05.364Z,18.27
2024-04-21T14:49:32.609Z,18.13
2024-04-21T14:51:59.423Z,18.26
2024-04-21T14:54:26.117Z,18.08
2024-04-21T14:56:54.999Z,18.20
2024-04-21T14:59:23.131Z,18.25
2024-04-21T15:01:49.953Z,18.19
2024-04-21T15:04:18.964Z,18.28
2024-04-21T15:06:46.093Z,18.28
2024-04-21T15:09:12.789Z,18.26
2024-04-21T15:11:39.673Z,18.21
2024-04-21T15:14:06.413Z,18.30
2024-04-21T15:16:36.252Z,18.25
2024-04-21T15:19:04.989Z,18.29
2024-04-21T15:21:31.726Z,18.32
2024-04-21T15:23:58.413Z,18.32
2024-04-21T15:26:25.091Z,18.33
2024-04-21T15:28:51.788Z,18.39
2024-04-21T15:31:18.599Z,18.41
2024-04-21T15:33:45.626Z,18.40
2024-04-21T15:36:14.312Z,18.40
2024-04-21T15:38:41.094Z,18.49
2024-04-21T15:41:08.512Z,18.46
2024-04-21T15:43:35.364Z,18.46
2024-04-21T15:46:02.360Z,18.43
2024-04-21T15:48:32.225Z,18.51
2024-04-21T15:50:59.005Z,18.53
2024-04-21T15:53:25.710Z,18.51
2024-04-21T15:55:52.565Z,18.29
2024-04-21T15:58:19.522Z,18.48
2024-04-21T16:00:47.248Z,18.40
2024-04-21T16:03:14.052Z,18.44
2024-04-21T16:05:42.645Z,18.40
2024-04-21T16:08:09.786Z,18.37
2024-04-21T16:10:36.712Z,18.34
2024-04-21T16:13:03.629Z,18.33
2024-04-21T16:15:30.428Z,18.31
2024-04-21T16:17:57.195Z,18.31
2024-04-21T16:20:24.023Z,18.38
2024-04-21T16:22:50.803Z,18.34
2024-04-21T16:25:17.711Z,18.36
2024-04-21T16:27:46.586Z,18.36
2024-04-21T16:30:13.464Z,18.02
2024-04-21T16:32:42.282Z,18.15
2024-04-21T16:35:10.303Z,18.33
2024-04-21T16:37:37.293Z,18.24
2024-04-21T16:40:04.475Z,18.30
2024-04-21T16:42:31.587Z,18.33
2024-04-21T16:44:58.720Z,18.28
2024-04-21T16:47:30.246Z,18.22
2024-04-21T16:49:57.707Z,18.26
2024-04-21T16:52:24.801Z,18.26
2024-04-21T16:54:51.814Z,18.26
2024-04-21T16:57:26.161Z,18.22
2024-04-21T16:59:53.255Z,18.28
2024-04-21T17:02:20.485Z,18.31
2024-04-21T17:04:49.223Z,18.32
2024-04-21T17:07:20.070Z,18.29
2024-04-21T17:09:49.478Z,18.16
2024-04-21T17:12:19.751Z,18.20
2024-04-21T17:14:46.579Z,18.31
2024-04-21T17:17:13.589Z,18.18
2024-04-21T17:19:40.384Z,18.26
2024-04-21T17:22:07.257Z,18.30
2024-04-21T17:24:34.033Z,18.28
2024-04-21T17:27:00.799Z,18.21
2024-04-21T17:29:27.473Z,18.29
2024-04-21T17:31:54.182Z,18.28
2024-04-21T17:34:20.935Z,18.17
2024-04-21T17:36:47.634Z,18.20
2024-04-21T17:39:14.382Z,18.30
2024-04-21T17:41:41.187Z,18.20
2024-04-21T17:44:07.937Z,18.25
2024-04-21T17:46:37.960Z,18.28
2024-04-21T17:49:04.763Z,18.15
2024-04-21T17:51:32.440Z,18.21
2024-04-21T17:53:59.136Z,18.23
2024-04-21T17:56:25.830Z,18.23
2024-04-21T17:58:52.502Z,18.18
2024-04-21T18:01:19.499Z,18.14
2024-04-21T18:04:52.857Z,18.49
2024-04-21T18:07:19.626Z,18.37
2024-04-21T18:09:46.273Z,18.32
2024-04-21T18:12:12.937Z,18.25
2024-04-21T18:14:39.528Z,18.21
2024-04-21T18:17:13.746Z,18.18
2024-04-21T18:19:48.549Z,18.14
2024-04-21T18:22:16.521Z,18.11
2024-04-21T18:24:43.477Z,18.09
2024-04-21T18:27:10.091Z,18.06
2024-04-21T18:29:36.682Z,18.03
2024-04-21T18:32:03.318Z,18.01
2024-04-21T18:34:29.986Z,17.98
2024-04-21T18:36:58.283Z,17.97
2024-04-21T18:39:26.318Z,17.95
2024-04-21T18:41:52.883Z,17.92
2024-04-21T18:44:19.449Z,17.89
2024-04-21T18:46:46.205Z,17.88
2024-04-21T18:49:12.883Z,17.86
2024-04-21T18:51:39.821Z,17.85
2024-04-21T18:54:07.504Z,17.83
2024-04-21T18:56:34.174Z,17.81
2024-04-21T18:59:00.855Z,17.79
2024-04-21T19:01:27.509Z,17.77
2024-04-21T19:03:54.177Z,17.75
2024-04-21T19:06:20.750Z,17.73
2024-04-21T19:08:47.365Z,17.72
2024-04-21T19:11:14.088Z,17.70
2024-04-21T19:13:41.328Z,17.69
2024-04-21T19:16:08.863Z,17.68
2024-04-21T19:18:35.839Z,17.65
2024-04-21T19:21:03.133Z,17.64
2024-04-21T19:23:29.849Z,17.63
2024-04-21T19:25:56.635Z,17.62
2024-04-21T19:28:23.549Z,17.60
2024-04-21T19:30:50.200Z,17.59
2024-04-21T19:33:16.861Z,17.58
2024-04-21T19:35:43.475Z,17.57
2024-04-21T19:38:10.021Z,17.57
2024-04-21T19:40:36.766Z,17.55
2024-04-21T19:43:05.315Z,17.54
2024-04-21T19:45:34.698Z,17.54
2024-04-21T19:48:01.418Z,17.53
2024-04-21T19:50:30.520Z,17.51
2024-04-21T19:52:57.139Z,17.50
2024-04-21T19:55:25.043Z,17.49
2024-04-21T19:57:51.640Z,17.48
2024-04-21T20:00:19.034Z,17.48
2024-04-21T20:02:45.659Z,17.46
2024-04-21T20:05:12.334Z,17.45
2024-04-21T20:07:39.131Z,17.44
2024-04-21T20:10:05.971Z,17.44
2024-04-21T20:12:32.756Z,17.43
2024-04-21T20:15:18.095Z,17.41
2024-04-21T20:18:03.024Z,17.41
2024-04-21T20:20:29.651Z,17.39
2024-04-21T20:22:56.971Z,17.39
2024-04-21T20:25:23.667Z,17.38
2024-04-21T20:27:50.323Z,17.37
2024-04-21T20:30:16.958Z,17.37
2024-04-21T20:32:43.681Z,17.37
2024-04-21T20:35:10.250Z,17.35
2024-04-21T20:37:36.907Z,17.34
2024-04-21T20:40:04.193Z,17.34
2024-04-21T20:42:30.845Z,17.32
2024-04-21T20:44:57.468Z,17.32
2024-04-21T20:47:24.111Z,17.31
2024-04-21T20:49:50.765Z,17.30
2024-04-21T20:52:17.383Z,17.29
2024-04-21T20:54:45.720Z,17.30
2024-04-21T20:57:12.297Z,17.27
2024-04-21T20:59:38.848Z,17.27
2024-04-21T21:02:05.637Z,17.26
2024-04-21T21:04:32.317Z,17.26
2024-04-21T21:06:58.906Z,17.25
2024-04-21T21:09:25.481Z,17.24
2024-04-21T21:11:52.089Z,17.22
2024-04-21T21:14:18.665Z,17.21
2024-04-21T21:16:45.347Z,17.21
2024-04-21T21:19:14.741Z,17.20
2024-04-21T21:21:41.323Z,17.19
2024-04-21T21:24:09.011Z,17.17
2024-04-21T21:26:35.593Z,17.16
2024-04-21T21:29:02.192Z,17.16
2024-04-21T21:31:28.800Z,17.13
2024-04-21T21:33:55.498Z,17.14
2024-04-21T21:36:22.376Z,17.12
2024-04-21T21:38:48.981Z,17.11
2024-04-21T21:41:15.628Z,17.09
2024-04-21T21:43:42.348Z,17.07
2024-04-21T21:46:08.964Z,17.06
2024-04-21T21:48:35.660Z,17.05
2024-04-21T21:51:02.235Z,17.04
2024-04-21T21:53:28.859Z,17.03
2024-04-21T21:55:55.454Z,17.03
2024-04-21T21:58:22.159Z,17.00
2024-04-21T22:00:50.718Z,17.00
2024-04-21T22:03:17.329Z,16.98
2024-04-21T22:05:43.917Z,16.97
2024-04-21T22:08:10.623Z,16.96
2024-04-21T22:10:37.226Z,16.94
2024-04-21T22:13:03.879Z,16.93
2024-04-21T22:15:30.540Z,16.91
2024-04-21T22:17:57.515Z,16.90
2024-04-21T22:20:24.234Z,16.89
2024-04-21T22:22:52.698Z,16.88
2024-04-21T22:25:19.811Z,16.87
2024-04-21T22:27:46.727Z,16.86
2024-04-21T22:30:13.292Z,16.84
2024-04-21T22:32:40.432Z,16.83
2024-04-21T22:35:07.357Z,16.82
2024-04-21T22:37:34.078Z,16.80
2024-04-21T22:40:00.860Z,16.80
2024-04-21T22:42:28.048Z,16.79
2024-04-21T22:44:54.628Z,16.77
2024-04-21T22:47:21.384Z,16.76
2024-04-21T22:49:51.839Z,16.75
2024-04-21T22:52:18.434Z,16.74
2024-04-21T22:54:45.038Z,16.73
2024-04-21T22:57:11.594Z,16.71
2024-04-21T22:59:38.186Z,16.70
2024-04-21T23:02:05.487Z,16.70
2024-04-21T23:04:32.406Z,16.69
2024-04-21T23:06:59.038Z,16.67
2024-04-21T23:09:25.600Z,16.67
2024-04-21T23:11:52.224Z,16.66
2024-04-21T23:14:18.840Z,16.65
2024-04-21T23:16:45.427Z,16.64
2024-04-21T23:19:12.055Z,16.63
2024-04-21T23:21:38.647Z,16.62
2024-04-21T23:24:05.319Z,16.60
2024-04-21T23:26:31.904Z,16.59
2024-04-21T23:28:58.546Z,16.58
2024-04-21T23:31:27.232Z,16.56
2024-04-21T23:33:54.419Z,16.56
2024-04-21T23:36:21.011Z,16.55
2024-04-21T23:38:47.609Z,16.55
2024-04-21T23:41:14.144Z,16.54
2024-04-21T23:43:40.736Z,16.53
2024-04-21T23:46:08.796Z,16.51
2024-04-21T23:48:35.551Z,16.50
2024-04-21T23:51:02.139Z,16.50
2024-04-21T23:53:28.698Z,16.49
2024-04-21T23:55:55.237Z,16.49
2024-04-21T23:58:21.867Z,16.49
